Japatul Valley Rd (73, 1166, 625) Station Data

Red Flag Warning: No
Fire Weather Zone: 258
SDGE Region: Mountain Empire
Lat/Lon: 32.776/-116.668

Observations

Time Wind Speed/Gust Temp(F) RH Fuel Moist Fuel Temp(F) Dewpt(F) Tmax(F) Tmin(F) Accum Precip 10-min Precip SL Press(mb)
4/26 2:50am 283 3 G 5 54° 63% - - 41° 56.5° 50° - - -
4/26 2:40am 265 2 G 4 54° 59% - - 40° 56.5° 50° - - -
4/26 2:30am 348 4 G 5 54° 58% - - 39° 56.5° 50° - - -
4/26 2:20am 24 4 G 6 53° 60% - - 39° 56.5° 50° - - -
4/26 2:10am 53 2 G 4 53° 59% - - 39° 56.5° 50° - - -
4/26 2:00am 59 1 G 4 52° 60% - - 39° 56.5° 50° - - -
4/26 1:50am 50 2 G 4 55° 54% - - 38° 56.5° 50° - - -
4/26 1:40am 25 3 G 4 56° 52% - - 39° 56.5° 50° - - -
4/26 1:30am 27 4 G 6 54° 58% - - 40° 56° 50° - - -
4/26 1:20am 54 4 G 6 51° 68% - - 41° 55.7° 50° - - -
4/26 1:10am 58 2 G 4 53° 65% - - 42° 55.7° 50.2° - - -
4/26 1:00am 16 1 G 2 54° 63% - - 42° 55.2° 50.8° - - -
4/26 12:50am 38 1 G 2 53° 68% - - 43° 54.9° 50.8° - - -
4/26 12:40am 65 2 G 3 52° 72% - - 43° 54.2° 50.8° - - -
4/26 12:30am 37 2 G 2 54° 69% - - 44° 54.2° 50.8° - - -
4/26 12:20am 49 1 G 2 52° 75% - - 44° 54.2° 50.8° - - -
4/26 12:10am 37 2 G 3 52° 76% - - 45° 53.1° 51.3° - - -
4/26 12:00am 28 3 G 3 53° 75% - - 45° 60.1° 47.5° - - -
4/25 11:50pm 34 3 G 4 53° 76% - - 45° 60.1° 47.5° - - -
4/25 11:40pm 28 3 G 4 51° 83% - - 46° 60.1° 47.5° - - -
4/25 11:30pm 32 2 G 3 50° 85% - - 46° 60.1° 47.5° - - -
4/25 11:20pm 46 2 G 3 50° 86% - - 46° 60.1° 47.5° - - -
4/25 11:10pm 23 3 G 4 50° 86% - - 46° 60.1° 47.5° - - -
4/25 11:00pm 34 5 G 6 49° 87% - - 46° 60.1° 47.5° - - -
4/25 10:50pm 40 2 G 4 48° 87% - - 45° 60.1° 47.5° - - -
4/25 10:40pm 38 3 G 4 48° 86% - - 44° 60.1° 47.5° - - -
4/25 10:30pm 23 3 G 4 48° 86% - - 44° 60.1° 47.5° - - -
4/25 10:20pm 318 2 G 2 48° 86% - - 44° 60.1° 47.5° - - -
4/25 10:10pm 317 1 G 2 48° 86% - - 44° 60.1° 47.5° - - -
4/25 10:00pm 334 2 G 3 48° 86% - - 44° 60.1° 47.5° - - -
4/25 9:50pm 349 1 G 3 48° 84% - - 44° 60.1° 47.5° - - -
4/25 9:40pm 330 2 G 3 49° 84% - - 44° 60.1° 47.5° - - -
4/25 9:30pm 324 2 G 4 49° 84% - - 45° 60.1° 47.5° - - -
4/25 9:20pm 354 2 G 4 49° 84% - - 45° 60.1° 47.5° - - -
4/25 9:10pm 314 3 G 5 50° 83% - - 45° 60.1° 47.5° - - -
4/25 9:00pm 269 2 G 7 50° 82% - - 45° 60.1° 47.5° - - -
4/25 8:50pm 264 4 G 7 50° 82% - - 45° 60.1° 47.5° - - -
4/25 8:40pm 286 3 G 5 50° 83% - - 45° 60.1° 47.5° - - -
4/25 8:30pm 293 2 G 3 50° 82% - - 45° 60.1° 47.5° - - -
4/25 8:20pm 283 3 G 6 51° 81% - - 45° 60.1° 47.5° - - -
4/25 8:10pm 283 3 G 5 51° 80% - - 45° 60.1° 47.5° - - -
4/25 8:00pm 291 2 G 5 51° 79% - - 45° 60.1° 47.5° - - -
4/25 7:50pm 274 4 G 7 52° 78% - - 45° 60.1° 47.5° - - -
4/25 7:40pm 265 4 G 8 52° 77% - - 45° 60.1° 47.5° - - -
4/25 7:30pm 257 5 G 11 53° 76% - - 45° 60.1° 47.5° - - -
4/25 7:20pm 258 6 G 10 53° 76% - - 45° 60.1° 47.5° - - -
4/25 7:10pm 262 6 G 10 53° 76% - - 46° 60.1° 47.5° - - -
4/25 7:00pm 260 6 G 10 53° 76% - - 46° 60.1° 47.5° - - -
4/25 6:50pm 260 7 G 13 54° 78% - - 47° 60.1° 47.5° - - -
4/25 6:40pm 253 6 G 11 54° 80% - - 48° 60.1° 47.5° - - -
4/25 6:30pm 260 7 G 13 54° 81% - - 48° 60.1° 47.5° - - -
4/25 6:20pm 254 7 G 12 54° 81% - - 49° 60.1° 47.5° - - -
4/25 6:10pm 257 7 G 12 54° 81% - - 49° 60.1° 47.5° - - -
4/25 6:00pm 264 8 G 14 55° 82% - - 49° 60.1° 47.5° - - -
4/25 5:50pm 267 8 G 14 55° 81% - - 49° 60.1° 47.5° - - -
4/25 5:40pm 258 8 G 15 55° 79% - - 49° 60.1° 47.5° - - -
4/25 5:30pm 258 9 G 16 56° 78% - - 49° 60.1° 47.5° - - -
4/25 5:20pm 252 8 G 14 56° 78% - - 49° 60.1° 47.5° - - -
4/25 5:10pm 255 7 G 13 56° 75% - - 49° 60.1° 47.5° - - -
4/25 5:00pm 256 8 G 13 56° 74% - - 48° 60.1° 47.5° - - -
4/25 4:50pm 252 8 G 14 57° 73% - - 48° 60.1° 47.5° - - -
4/25 4:40pm 260 7 G 14 57° 73% - - 49° 60.1° 47.5° - - -
4/25 4:30pm 259 7 G 13 57° 74% - - 49° 60.1° 47.5° - - -
4/25 4:20pm 263 8 G 17 57° 74% - - 49° 60.1° 47.5° - - -
4/25 4:10pm 252 8 G 14 57° 74% - - 49° 60.1° 47.5° - - -
4/25 4:00pm 258 9 G 18 57° 74% - - 49° 60.1° 47.5° - - -
4/25 3:50pm 274 8 G 16 58° 72% - - 49° 60.1° 47.5° - - -
4/25 3:40pm 275 7 G 12 58° 71% - - 49° 60.1° 47.5° - - -
4/25 3:30pm 280 7 G 13 58° 72% - - 49° 60.1° 47.5° - - -
4/25 3:20pm 257 8 G 15 58° 71% - - 48° 60.1° 47.5° - - -
4/25 3:10pm 259 6 G 10 58° 70% - - 48° 60.1° 47.5° - - -
4/25 3:00pm 258 7 G 13 58° 71% - - 48° 60.1° 47.5° - - -
4/25 2:50pm 264 7 G 13 58° 70% - - 48° 60.1° 47.5° - - -
4/25 2:40pm 261 7 G 12 59° 69% - - 48° 60.1° 47.5° - - -
4/25 2:30pm 257 7 G 14 58° 70% - - 49° 60.1° 47.5° - - -
4/25 2:20pm 259 8 G 14 58° 71% - - 49° 60.1° 47.5° - - -
4/25 2:10pm 268 7 G 12 58° 71% - - 48° 60.1° 47.5° - - -
4/25 2:00pm 279 7 G 16 59° 68% - - 48° 60.1° 47.5° - - -
4/25 1:50pm 269 7 G 14 59° 68% - - 48° 60.1° 47.5° - - -
4/25 1:40pm 261 7 G 13 58° 68% - - 48° 60.1° 47.5° - - -
4/25 1:30pm 261 7 G 14 58° 67% - - 47° 60.1° 47.5° - - -
4/25 1:20pm 250 8 G 15 59° 66% - - 48° 60.1° 47.5° - - -
4/25 1:10pm 252 8 G 16 58° 66% - - 47° 60.1° 47.5° - - -
4/25 1:00pm 268 7 G 14 59° 65% - - 47° 60.1° 47.5° - - -
4/25 12:50pm 271 6 G 12 59° 64% - - 47° 60.1° 47.5° - - -
4/25 12:40pm 265 8 G 16 58° 64% - - 47° 59.8° 47.5° - - -
4/25 12:30pm 257 8 G 15 58° 65% - - 47° 59.8° 47.5° - - -
4/25 12:20pm 251 7 G 14 58° 65% - - 46° 59.2° 47.5° - - -
4/25 12:10pm 254 8 G 14 58° 64% - - 46° 59.2° 47.5° - - -
4/25 12:00pm 256 8 G 16 58° 64% - - 46° 59.2° 47.5° - - -
4/25 11:50am 272 6 G 14 59° 64% - - 46° 59.2° 47.5° - - -
4/25 11:40am 273 6 G 12 58° 64% - - 46° 59.2° 47.5° - - -
4/25 11:30am 258 6 G 12 57° 67% - - 46° 58.6° 47.5° - - -
4/25 11:20am 252 9 G 15 57° 67% - - 46° 58.6° 47.5° - - -
4/25 11:10am 266 7 G 14 57° 66% - - 46° 57.9° 47.5° - - -
4/25 11:00am 251 8 G 19 57° 68% - - 46° 57.9° 47.5° - - -
4/25 10:50am 263 7 G 15 57° 68% - - 46° 57.9° 47.5° - - -
4/25 10:40am 260 9 G 18 56° 68% - - 46° 57.3° 47.5° - - -
4/25 10:30am 270 8 G 13 56° 70% - - 46° 57.2° 47.5° - - -
4/25 10:20am 266 7 G 12 55° 73% - - 47° 56.3° 47.5° - - -
4/25 10:10am 260 6 G 10 55° 71% - - 46° 56.3° 47.5° - - -
4/25 10:00am 282 7 G 14 55° 72% - - 46° 56.1° 47.5° - - -
4/25 9:50am 261 6 G 11 54° 76% - - 47° 55.8° 47.5° - - -
4/25 9:40am 267 7 G 13 55° 73% - - 47° 55.8° 47.5° - - -
4/25 9:30am 252 6 G 10 54° 76% - - 46° 54.7° 47.5° - - -
4/25 9:20am 242 6 G 11 54° 75% - - 46° 54.7° 47.5° - - -
4/25 9:10am 263 5 G 9 53° 80% - - 47° 54.1° 47.5° - - -
4/25 9:00am 261 4 G 8 53° 76% - - 46° 54.1° 47.5° - - -
4/25 8:50am 239 4 G 7 53° 75% - - 45° 54.1° 47.5° - - -
4/25 8:40am 243 5 G 8 53° 79% - - 46° 53.3° 47.5° - - -
4/25 8:30am 232 3 G 7 52° 85% - - 47° 52.8° 47.5° - - -
4/25 8:20am 218 3 G 6 51° 89% - - 48° 51.7° 47.5° - - -
4/25 8:10am 215 2 G 4 51° 91% - - 48° 51.5° 47.5° - - -
4/25 8:00am 204 2 G 5 51° 92% - - 48° 51.2° 47.5° - - -
4/25 7:50am 187 2 G 5 50° 93% - - 49° 50.9° 47.5° - - -
4/25 7:40am 186 2 G 4 50° 96% - - 49° 50.9° 47.5° - - -
4/25 7:30am 192 2 G 4 49° 97% - - 49° 50.1° 47.5° - - -
4/25 7:20am 202 3 G 5 49° 98% - - 49° 49.9° 47.5° - - -
4/25 7:10am 177 2 G 5 49° 98% - - 49° 49.9° 47.5° - - -
4/25 7:00am 157 3 G 7 49° 98% - - 49° 49.7° 47.5° - - -
4/25 6:50am 178 2 G 4 49° 98% - - 48° 49.7° 47.5° - - -
4/25 6:40am 165 2 G 5 49° 98% - - 48° 49.7° 47.5° - - -
4/25 6:30am 165 2 G 6 49° 99% - - 48° 49.7° 47.5° - - -
4/25 6:20am 160 3 G 7 49° 99% - - 48° 49.7° 47.5° - - -
4/25 6:10am 151 2 G 5 48° 99% - - 48° 49.7° 47.5° - - -
4/25 6:00am 164 2 G 6 48° 99% - - 48° 49.7° 47.5° - - -
4/25 5:50am 150 3 G 6 48° 99% - - 48° 49.7° 47.5° - - -
4/25 5:40am 155 2 G 5 48° 99% - - 48° 49.7° 47.5° - - -
4/25 5:30am 159 3 G 7 48° 99% - - 48° 49.7° 47.5° - - -
4/25 5:20am 154 2 G 6 48° 99% - - 48° 49.7° 47.5° - - -
4/25 5:10am 152 2 G 4 48° 99% - - 48° 49.7° 47.5° - - -
4/25 5:00am 160 2 G 5 48° 99% - - 48° 49.7° 47.5° - - -
4/25 4:50am 171 3 G 6 48° 99% - - 48° 49.7° 47.5° - - -
4/25 4:40am 182 3 G 5 48° 99% - - 48° 49.7° 47.5° - - -
4/25 4:30am 184 3 G 7 48° 99% - - 48° 49.7° 47.8° - - -
4/25 4:20am 189 4 G 7 48° 99% - - 48° 49.7° 47.8° - - -
4/25 4:10am 181 4 G 7 48° 99% - - 48° 49.7° 47.8° - - -
4/25 4:00am 181 4 G 8 48° 99% - - 48° 49.7° 47.8° - - -
4/25 3:50am 179 5 G 10 48° 99% - - 48° 49.7° 48° - - -
4/25 3:40am 170 4 G 9 49° 99% - - 48° 49.7° 48.2° - - -
4/25 3:30am 169 5 G 11 49° 99% - - 48° 49.7° 48.2° - - -
4/25 3:20am 167 4 G 9 49° 98% - - 48° 49.7° 48.2° - - -
4/25 3:10am 168 4 G 10 49° 98% - - 48° 49.7° 48.2° - - -
4/25 3:00am 178 3 G 8 49° 98% - - 48° 49.7° 48.2° - - -
4/25 2:50am 174 3 G 7 49° 98% - - 48° 49.7° 48.2° - - -
4/25 2:40am 184 4 G 7 49° 98% - - 48° 49.7° 48.2° - - -
4/25 2:30am 185 4 G 7 49° 98% - - 48° 49.7° 48.2° - - -
4/25 2:20am 186 4 G 7 49° 98% - - 48° 49.7° 48.2° - - -
4/25 2:10am 181 4 G 7 49° 98% - - 48° 49.7° 48.2° - - -
4/25 2:00am 180 4 G 7 49° 98% - - 48° 49.7° 48.2° - - -
4/25 1:50am 181 4 G 6 49° 98% - - 48° 49.7° 48.2° - - -
4/25 1:40am 184 4 G 6 49° 98% - - 48° 49.7° 48.2° - - -
4/25 1:30am 183 3 G 7 49° 97% - - 48° 49.7° 48.2° - - -
4/25 1:20am 179 3 G 7 49° 97% - - 48° 49.7° 48.2° - - -
4/25 1:10am 181 4 G 8 49° 97% - - 48° 49.7° 48.2° - - -
4/25 1:00am 184 5 G 10 49° 96% - - 48° 49.7° 48.2° - - -
4/25 12:50am 177 4 G 8 49° 96% - - 48° 49.7° 48.2° - - -
4/25 12:40am 189 3 G 9 49° 95% - - 48° 49.7° 48.2° - - -
4/25 12:30am 190 3 G 6 49° 94% - - 47° 49.7° 48.2° - - -
4/25 12:20am 167 3 G 7 49° 94% - - 47° 49.5° 48.2° - - -
4/25 12:10am 183 3 G 6 49° 95% - - 47° 49.4° 48.2° - - -
4/25 12:00am 219 6 G 10 49° 97% - - 48° 64.3° 40.7° - - -
4/24 11:50pm 241 6 G 9 49° 97% - - 48° 64.3° 40.7° - - -
4/24 11:40pm 242 4 G 6 49° 96% - - 48° 64.3° 40.7° - - -
4/24 11:30pm 263 4 G 7 49° 96% - - 48° 64.3° 40.7° - - -
4/24 11:20pm 253 3 G 5 49° 96% - - 48° 64.3° 40.7° - - -
4/24 11:10pm 242 4 G 7 49° 96% - - 48° 64.3° 40.7° - - -
4/24 11:00pm 212 3 G 7 49° 96% - - 48° 64.3° 40.7° - - -
4/24 10:50pm 210 3 G 4 49° 96% - - 47° 64.3° 40.7° - - -
4/24 10:40pm 201 3 G 6 49° 96% - - 47° 64.3° 40.7° - - -
4/24 10:30pm 174 3 G 5 49° 95% - - 48° 64.3° 40.7° - - -
4/24 10:20pm 164 2 G 5 49° 95% - - 48° 64.3° 40.7° - - -
4/24 10:10pm 104 1 G 2 49° 95% - - 47° 64.3° 40.7° - - -
4/24 10:00pm 75 1 G 2 48° 94% - - 47° 64.3° 40.7° - - -
4/24 9:50pm 97 1 G 2 49° 92% - - 47° 64.3° 40.7° - - -
4/24 9:40pm 0 0 G 0 50° 93% - - 48° 64.3° 40.7° - - -
4/24 9:30pm 248 1 G 2 50° 95% - - 49° 64.3° 40.7° - - -
4/24 9:20pm 253 2 G 3 50° 96% - - 49° 64.3° 40.7° - - -
4/24 9:10pm 247 2 G 4 51° 96% - - 50° 64.3° 40.7° - - -
4/24 9:00pm 248 4 G 6 51° 96% - - 50° 64.3° 40.7° - - -
4/24 8:50pm 256 3 G 5 51° 94% - - 49° 64.3° 40.7° - - -
4/24 8:40pm 266 2 G 4 51° 93% - - 49° 64.3° 40.7° - - -
4/24 8:30pm 284 3 G 5 51° 94% - - 49° 64.3° 40.7° - - -
4/24 8:20pm 296 2 G 5 51° 94% - - 50° 64.3° 40.7° - - -
4/24 8:10pm 307 2 G 4 51° 94% - - 50° 64.3° 40.7° - - -
4/24 8:00pm 295 2 G 4 52° 94% - - 50° 64.3° 40.7° - - -
4/24 7:50pm 276 2 G 4 52° 94% - - 50° 64.3° 40.7° - - -
4/24 7:40pm 253 3 G 7 52° 94% - - 51° 64.3° 40.7° - - -
4/24 7:30pm 247 4 G 7 53° 94% - - 51° 64.3° 40.7° - - -
4/24 7:20pm 260 3 G 6 53° 92% - - 51° 64.3° 40.7° - - -
4/24 7:10pm 266 3 G 5 53° 91% - - 51° 64.3° 40.7° - - -
4/24 7:00pm 257 5 G 8 54° 90% - - 51° 64.3° 40.7° - - -
4/24 6:50pm 257 5 G 8 55° 87% - - 51° 64.3° 40.7° - - -
4/24 6:40pm 271 5 G 9 55° 85% - - 51° 64.3° 40.7° - - -
4/24 6:30pm 281 5 G 8 55° 84% - - 51° 64.3° 40.7° - - -
4/24 6:20pm 287 5 G 9 56° 84% - - 51° 64.3° 40.7° - - -
4/24 6:10pm 287 5 G 10 56° 82% - - 51° 64.3° 40.7° - - -
4/24 6:00pm 285 5 G 11 57° 80% - - 51° 64.3° 40.7° - - -